Terminal Aerodrome Forecast
Issued by NWS

Home | Current Version | Previous Version | Text Only | Print | Product List | Glossary Off
Versions: 1 2 3 4 5 6 7 8 9 10 11 12 13 14 15 16

000
FTUS43 KGRB 271730
TAFAUW
TAF
KAUW 271730Z 2718/2818 19006KT P6SM SCT035
     FM272000 18003KT P6SM BKN080 OVC200
     FM280800 VRB03KT P6SM BKN050 BKN080
     FM281200 15003KT P6SM BKN035 OVC050 PROB30 2812/2818 4SM -SHRA
      BR OVC025=

USA.gov is the U.S. government's official web portal to all federal, state and local government web resources and services.